Time;durP1;ratioP1;P1;durP2;ratioP2;P2;SDS_P1;SDS_P2;PMS_P1;PMS_P2;Temp;Humidity;BMP_temperature;BMP_pressure;BME280_temperature;BME280_humidity;BME280_pressure;Samples;Min_cycle;Max_cycle;Signal;HPM_P1;HPM_P2
2023/06/26 00:01:31;;;;;;;5.97;4.13;;;22.00;1.00;;;;;;5054292;28;20127;-62
2023/06/26 00:03:58;;;;;;;6.82;3.95;;;22.00;1.00;;;;;;5052976;28;20052;-62
2023/06/26 00:06:25;;;;;;;5.78;3.60;;;22.00;1.00;;;;;;5054512;28;20041;-63
2023/06/26 00:08:52;;;;;;;5.30;4.00;;;22.00;1.00;;;;;;5054439;28;20037;-63
2023/06/26 00:11:18;;;;;;;4.50;3.58;;;21.90;1.00;;;;;;5054398;28;20033;-62
2023/06/26 00:13:44;;;;;;;5.38;3.58;;;21.90;1.00;;;;;;5054365;28;20060;-62
2023/06/26 00:16:10;;;;;;;7.28;3.70;;;21.90;1.00;;;;;;5053867;28;20073;-62
2023/06/26 00:18:35;;;;;;;9.20;4.45;;;22.10;1.00;;;;;;5054134;28;20094;-62
2023/06/26 00:21:01;;;;;;;9.77;3.80;;;21.90;1.00;;;;;;5053863;28;20123;-62
2023/06/26 00:23:27;;;;;;;5.75;4.35;;;21.80;1.00;;;;;;5054078;28;20045;-62
2023/06/26 00:25:53;;;;;;;6.40;3.67;;;21.80;1.00;;;;;;5053901;28;20041;-62
2023/06/26 00:28:19;;;;;;;6.93;4.10;;;21.70;1.00;;;;;;5054072;28;20099;-62
2023/06/26 00:30:44;;;;;;;6.80;3.38;;;21.70;1.00;;;;;;5053918;28;20068;-62
2023/06/26 00:33:10;;;;;;;6.65;3.67;;;21.70;1.00;;;;;;5053932;28;20037;-62
2023/06/26 00:35:35;;;;;;;5.10;4.07;;;21.70;1.00;;;;;;5053546;28;20033;-62
2023/06/26 00:38:01;;;;;;;5.00;3.85;;;21.70;1.00;;;;;;5053904;28;20047;-62
2023/06/26 00:40:27;;;;;;;3.30;2.85;;;21.70;1.00;;;;;;5053556;28;20040;-62
2023/06/26 00:42:53;;;;;;;6.00;3.95;;;21.70;1.00;;;;;;5053650;28;20037;-64
2023/06/26 00:45:19;;;;;;;4.30;3.72;;;22.20;1.00;;;;;;5053776;28;20065;-62
2023/06/26 00:47:44;;;;;;;5.18;3.55;;;21.70;1.00;;;;;;5053693;28;20037;-62
2023/06/26 00:50:11;;;;;;;6.43;4.32;;;21.70;1.00;;;;;;5052172;28;20403;-62
2023/06/26 00:52:37;;;;;;;5.60;4.07;;;21.70;1.00;;;;;;5053604;28;20041;-62
2023/06/26 00:55:04;;;;;;;5.28;4.30;;;21.70;1.00;;;;;;5053643;28;20040;-62
2023/06/26 00:57:31;;;;;;;6.13;4.30;;;21.60;1.00;;;;;;5053284;28;20063;-62
2023/06/26 00:59:57;;;;;;;6.28;4.28;;;21.60;1.00;;;;;;5052247;28;20044;-62
2023/06/26 01:02:22;;;;;;;4.00;3.17;;;21.50;1.00;;;;;;5053434;28;20041;-63
2023/06/26 01:04:49;;;;;;;5.95;3.67;;;21.60;1.00;;;;;;5053002;28;20057;-62
2023/06/26 01:07:18;;;;;;;6.28;4.18;;;21.50;1.00;;;;;;5053054;28;20051;-62
2023/06/26 01:09:45;;;;;;;4.82;3.70;;;21.50;1.00;;;;;;5053387;28;20135;-62
2023/06/26 01:12:11;;;;;;;5.43;3.85;;;21.50;1.00;;;;;;5053341;28;20036;-62
2023/06/26 01:14:36;;;;;;;6.60;4.25;;;21.40;1.00;;;;;;5052936;28;20127;-62
2023/06/26 01:17:02;;;;;;;5.93;3.97;;;21.40;1.00;;;;;;5053177;28;20045;-62
2023/06/26 01:19:33;;;;;;;5.20;3.92;;;21.40;1.00;;;;;;5053138;28;20480;-62
2023/06/26 01:22:14;;;;;;;5.32;3.88;;;21.30;1.00;;;;;;5053188;28;20412;-62
2023/06/26 01:24:44;;;;;;;4.93;3.75;;;21.30;1.00;;;;;;5052652;28;20045;-63
2023/06/26 01:27:11;;;;;;;5.05;3.58;;;21.30;1.00;;;;;;5052347;28;20090;-63
2023/06/26 01:29:37;;;;;;;5.25;3.72;;;21.30;1.00;;;;;;5052841;28;20043;-62
2023/06/26 01:32:03;;;;;;;5.25;4.32;;;21.30;1.00;;;;;;5053046;28;20401;-62
2023/06/26 01:34:29;;;;;;;3.88;3.15;;;21.20;1.00;;;;;;5052979;28;20041;-62
2023/06/26 01:36:55;;;;;;;5.22;4.45;;;21.20;1.00;;;;;;5052928;28;20041;-62
2023/06/26 01:39:20;;;;;;;4.55;3.45;;;21.20;1.00;;;;;;5052809;28;20055;-62
2023/06/26 01:41:46;;;;;;;6.20;3.88;;;21.10;1.00;;;;;;5052849;28;20037;-62
2023/06/26 01:44:27;;;;;;;4.47;3.63;;;21.10;1.00;;;;;;5052864;28;20489;-62
2023/06/26 01:47:05;;;;;;;5.50;4.07;;;21.70;1.00;;;;;;5052894;28;20115;-62
2023/06/26 01:49:46;;;;;;;4.63;3.70;;;21.10;1.00;;;;;;5052868;28;20473;-62
2023/06/26 01:52:19;;;;;;;;;;;21.20;1.00;;;;;;5053176;28;20036;-62
2023/06/26 01:55:11;;;;;;;4.20;3.25;;;21.10;1.00;;;;;;5052753;28;20273;-62
2023/06/26 01:57:39;;;;;;;5.80;3.83;;;21.10;1.00;;;;;;5052598;28;20045;-62
2023/06/26 02:00:06;;;;;;;4.90;3.80;;;21.20;1.00;;;;;;5052641;28;20555;-62
2023/06/26 02:02:31;;;;;;;5.32;4.05;;;21.20;1.00;;;;;;5051042;28;20045;-62
2023/06/26 02:04:57;;;;;;;5.32;3.97;;;21.10;1.00;;;;;;5051038;28;20118;-62
2023/06/26 02:07:23;;;;;;;5.43;3.90;;;21.10;1.00;;;;;;5052630;28;20120;-62
2023/06/26 02:09:48;;;;;;;6.50;4.30;;;21.40;1.00;;;;;;5052558;28;20412;-62
2023/06/26 02:12:14;;;;;;;5.72;3.92;;;21.20;1.00;;;;;;5052636;28;20559;-62
2023/06/26 02:14:40;;;;;;;5.45;4.25;;;21.10;1.00;;;;;;5052482;28;20041;-62
2023/06/26 02:17:05;;;;;;;5.90;4.53;;;21.10;1.00;;;;;;5052154;28;20041;-63
2023/06/26 02:19:31;;;;;;;6.15;4.60;;;21.10;1.00;;;;;;5052200;28;20052;-63
2023/06/26 02:21:56;;;;;;;4.90;3.63;;;21.10;1.00;;;;;;5052492;28;20370;-62
2023/06/26 02:24:22;;;;;;;7.70;4.97;;;20.90;1.00;;;;;;5052094;28;20473;-62
2023/06/26 02:26:49;;;;;;;6.13;4.63;;;21.10;1.00;;;;;;5050894;28;20048;-63
2023/06/26 02:29:14;;;;;;;6.45;4.47;;;21.20;1.00;;;;;;5052420;28;20041;-62
2023/06/26 02:31:40;;;;;;;6.22;4.60;;;21.10;1.00;;;;;;5052212;28;20503;-62
2023/06/26 02:34:06;;;;;;;5.85;4.30;;;21.20;1.00;;;;;;5052358;28;20586;-62
2023/06/26 02:36:32;;;;;;;5.35;4.35;;;21.10;1.00;;;;;;5052337;28;20041;-63
2023/06/26 02:38:57;;;;;;;6.05;4.72;;;21.10;1.00;;;;;;5053264;28;20496;-63
2023/06/26 02:41:23;;;;;;;7.68;5.28;;;21.10;1.00;;;;;;5054860;28;20137;-63
2023/06/26 02:43:49;;;;;;;7.20;5.05;;;21.10;1.00;;;;;;5055982;28;20043;-62
2023/06/26 02:46:14;;;;;;;6.28;4.20;;;21.10;1.00;;;;;;5055981;28;20076;-63
2023/06/26 02:48:40;;;;;;;8.32;4.63;;;21.00;1.00;;;;;;5054408;28;20090;-62
2023/06/26 02:51:06;;;;;;;5.97;4.38;;;21.10;1.00;;;;;;5055589;28;20045;-62
2023/06/26 02:53:32;;;;;;;6.35;4.45;;;21.30;1.00;;;;;;5055889;28;20366;-62
2023/06/26 02:55:58;;;;;;;6.85;4.38;;;21.10;1.00;;;;;;5055779;28;20044;-63
2023/06/26 02:58:23;;;;;;;4.95;4.15;;;21.40;1.00;;;;;;5055773;28;20476;-62
2023/06/26 03:00:49;;;;;;;6.03;4.75;;;20.30;1.00;;;;;;5055692;28;20053;-63
2023/06/26 03:03:14;;;;;;;6.45;4.40;;;21.10;1.00;;;;;;5055135;28;20060;-62
2023/06/26 03:05:40;;;;;;;5.03;3.70;;;21.00;1.00;;;;;;5055595;28;20040;-62
2023/06/26 03:08:06;;;;;;;5.38;4.20;;;21.10;1.00;;;;;;5055569;28;20392;-62
2023/06/26 03:10:31;;;;;;;13.63;5.55;;;21.10;1.00;;;;;;5055582;28;20037;-62
2023/06/26 03:12:57;;;;;;;7.82;4.78;;;21.10;1.00;;;;;;5055473;28;20037;-63
2023/06/26 03:15:22;;;;;;;9.52;4.63;;;21.10;1.00;;;;;;5055422;28;20072;-62
2023/06/26 03:17:48;;;;;;;6.65;4.60;;;21.10;1.00;;;;;;5055314;28;20132;-62
2023/06/26 03:20:15;;;;;;;6.22;4.57;;;21.10;1.00;;;;;;5054181;28;20476;-62
2023/06/26 03:22:41;;;;;;;5.85;4.43;;;21.10;1.00;;;;;;5055201;28;20041;-62
2023/06/26 03:25:06;;;;;;;6.22;4.40;;;21.10;1.00;;;;;;5055214;28;20389;-62
2023/06/26 03:27:32;;;;;;;6.97;4.65;;;21.10;1.00;;;;;;5055212;28;20061;-62
2023/06/26 03:29:58;;;;;;;7.03;5.28;;;21.10;1.00;;;;;;5055163;28;20056;-62
2023/06/26 03:32:23;;;;;;;7.82;4.45;;;21.00;1.00;;;;;;5055097;28;20509;-63
2023/06/26 03:34:49;;;;;;;6.13;4.55;;;21.20;1.00;;;;;;5053841;28;20068;-62
2023/06/26 03:37:14;;;;;;;5.80;4.32;;;21.10;1.00;;;;;;5054673;28;20492;-62
2023/06/26 03:39:40;;;;;;;6.10;4.40;;;21.10;1.00;;;;;;5054733;28;20044;-62
2023/06/26 03:42:06;;;;;;;5.15;3.78;;;21.10;1.00;;;;;;5054964;28;20530;-63
2023/06/26 03:44:31;;;;;;;6.53;4.80;;;21.20;1.00;;;;;;5054829;28;20044;-63
2023/06/26 03:46:57;;;;;;;6.22;4.43;;;21.20;1.00;;;;;;5054858;28;20457;-63
2023/06/26 03:49:23;;;;;;;7.00;5.22;;;21.20;1.00;;;;;;5054753;28;20045;-62
2023/06/26 03:51:49;;;;;;;7.68;4.80;;;21.10;1.00;;;;;;5053893;28;20052;-61
2023/06/26 03:54:14;;;;;;;7.65;5.32;;;21.20;1.00;;;;;;5053585;28;20070;-61
2023/06/26 03:56:40;;;;;;;6.10;4.50;;;21.20;1.00;;;;;;5054630;28;20071;-61
2023/06/26 03:59:05;;;;;;;5.35;4.75;;;21.20;1.00;;;;;;5053043;28;20048;-61
2023/06/26 04:01:31;;;;;;;5.35;4.15;;;21.20;1.00;;;;;;5054554;28;20485;-62
2023/06/26 04:03:57;;;;;;;7.75;5.20;;;21.30;1.00;;;;;;5054163;28;20053;-62
2023/06/26 04:06:22;;;;;;;6.35;4.78;;;21.20;1.00;;;;;;5052917;28;20400;-62
2023/06/26 04:08:48;;;;;;;7.18;4.07;;;21.20;1.00;;;;;;5054398;28;20079;-61
2023/06/26 04:11:13;;;;;;;5.55;4.03;;;21.30;1.00;;;;;;5054361;28;20106;-61
2023/06/26 04:13:39;;;;;;;6.93;3.60;;;21.50;1.00;;;;;;5054349;28;20040;-61
2023/06/26 04:16:06;;;;;;;5.70;4.00;;;21.30;1.00;;;;;;5054330;28;20049;-61
2023/06/26 04:18:31;;;;;;;6.82;4.30;;;21.40;1.00;;;;;;5053991;28;20094;-61
2023/06/26 04:21:08;;;;;;;6.32;3.85;;;21.30;1.00;;;;;;5054138;28;20467;-61
2023/06/26 04:23:34;;;;;;;5.68;3.80;;;21.30;1.00;;;;;;5054385;28;20041;-61
2023/06/26 04:26:00;;;;;;;5.32;3.80;;;21.30;1.00;;;;;;5053877;28;20041;-61
2023/06/26 04:28:26;;;;;;;6.07;4.03;;;21.30;1.00;;;;;;5053790;28;20044;-62
2023/06/26 04:30:51;;;;;;;4.75;3.75;;;21.90;1.00;;;;;;5053984;28;20032;-61
2023/06/26 04:33:17;;;;;;;6.55;3.97;;;21.50;1.00;;;;;;5052550;28;20052;-61
2023/06/26 04:35:44;;;;;;;5.78;3.90;;;21.30;1.00;;;;;;5053884;28;20043;-61
2023/06/26 04:38:11;;;;;;;8.05;3.92;;;21.30;1.00;;;;;;5053936;28;20041;-61
2023/06/26 04:40:36;;;;;;;5.20;4.20;;;21.30;1.00;;;;;;5053506;28;20041;-61
2023/06/26 04:43:02;;;;;;;13.35;3.88;;;21.30;1.00;;;;;;5053735;28;20048;-61
2023/06/26 04:45:28;;;;;;;5.97;3.88;;;21.30;1.00;;;;;;5053469;28;20045;-62
2023/06/26 04:47:53;;;;;;;4.22;2.70;;;21.30;1.00;;;;;;5053701;28;20549;-61
2023/06/26 04:50:19;;;;;;;5.38;3.60;;;21.30;1.00;;;;;;5053638;28;20492;-61
2023/06/26 04:52:45;;;;;;;5.97;4.03;;;21.30;1.00;;;;;;5053246;28;20033;-61
2023/06/26 04:55:10;;;;;;;5.57;3.38;;;21.30;1.00;;;;;;5053539;28;20033;-61
2023/06/26 04:57:36;;;;;;;7.60;3.53;;;21.30;1.00;;;;;;5053522;28;20033;-61
2023/06/26 05:00:04;;;;;;;7.57;3.80;;;21.40;1.00;;;;;;5053515;28;20121;-61
2023/06/26 05:02:29;;;;;;;4.40;3.00;;;21.50;1.00;;;;;;5053430;28;20489;-61
2023/06/26 05:04:55;;;;;;;4.28;3.30;;;21.50;1.00;;;;;;5052918;28;20106;-61
2023/06/26 05:07:21;;;;;;;5.10;3.00;;;21.60;1.00;;;;;;5053112;28;20507;-61
2023/06/26 05:09:46;;;;;;;7.07;3.42;;;21.90;1.00;;;;;;5053320;28;20113;-61
2023/06/26 05:12:12;;;;;;;8.73;3.15;;;21.60;1.00;;;;;;5053291;28;20044;-61
2023/06/26 05:14:38;;;;;;;4.40;3.22;;;21.70;7.40;;;;;;5052973;28;20056;-61
2023/06/26 05:17:04;;;;;;;4.72;3.00;;;21.60;1.00;;;;;;5053281;28;20037;-62
2023/06/26 05:19:29;;;;;;;4.43;3.08;;;21.60;18.30;;;;;;5053129;28;20044;-62
2023/06/26 05:21:56;;;;;;;3.78;2.83;;;21.60;9.80;;;;;;5053141;28;20045;-62
2023/06/26 05:24:23;;;;;;;4.93;2.97;;;21.60;20.70;;;;;;5052986;28;20052;-64
2023/06/26 05:26:49;;;;;;;5.57;2.85;;;21.60;27.50;;;;;;5053070;28;20396;-61
2023/06/26 05:29:14;;;;;;;5.55;3.42;;;21.60;38.20;;;;;;5053044;28;20033;-61
2023/06/26 05:31:41;;;;;;;4.68;3.17;;;21.60;76.30;;;;;;5052726;28;20405;-62
2023/06/26 05:34:10;;;;;;;4.60;3.03;;;21.80;51.80;;;;;;5053080;28;20040;-62
2023/06/26 05:36:36;;;;;;;5.22;3.22;;;21.60;48.00;;;;;;5051514;28;20400;-66
2023/06/26 05:39:02;;;;;;;4.13;2.90;;;21.60;47.80;;;;;;5052911;28;20527;-62
2023/06/26 05:41:28;;;;;;;7.55;3.53;;;21.60;61.10;;;;;;5052912;28;20087;-62
2023/06/26 05:43:54;;;;;;;6.22;3.33;;;21.60;80.80;;;;;;5052803;28;20076;-62
2023/06/26 05:46:20;;;;;;;5.35;3.45;;;21.60;99.90;;;;;;5052657;28;20051;-62
2023/06/26 05:48:45;;;;;;;8.00;3.50;;;21.60;98.30;;;;;;5051236;28;20123;-62
2023/06/26 05:51:11;;;;;;;7.03;3.60;;;21.60;99.90;;;;;;5052581;28;20029;-67
2023/06/26 05:53:37;;;;;;;4.45;2.95;;;21.60;99.90;;;;;;5051155;28;20086;-63
2023/06/26 05:56:03;;;;;;;6.00;3.63;;;21.40;99.90;;;;;;5052826;28;20488;-68
2023/06/26 05:58:30;;;;;;;5.28;3.33;;;21.30;99.90;;;;;;5051210;28;20053;-63
2023/06/26 06:00:56;;;;;;;5.05;3.17;;;21.30;99.90;;;;;;5052515;28;20049;-63
2023/06/26 06:03:23;;;;;;;5.55;3.28;;;21.20;99.90;;;;;;5052000;28;20114;-61
2023/06/26 06:05:48;;;;;;;5.47;3.17;;;21.10;99.90;;;;;;5052654;28;20501;-62
2023/06/26 06:08:14;;;;;;;6.22;3.45;;;21.00;99.90;;;;;;5052653;28;20048;-62
2023/06/26 06:10:39;;;;;;;5.63;3.03;;;20.80;99.90;;;;;;5052288;28;20381;-62
2023/06/26 06:13:05;;;;;;;6.57;3.35;;;20.80;99.90;;;;;;5052575;28;20049;-62
2023/06/26 06:15:31;;;;;;;6.53;3.20;;;20.70;1.00;;;;;;5055962;28;20499;-63
2023/06/26 06:17:56;;;;;;;4.93;2.88;;;20.60;99.90;;;;;;5056235;28;20044;-62
2023/06/26 06:20:22;;;;;;;4.20;2.80;;;20.60;99.90;;;;;;5056150;28;20076;-66
2023/06/26 06:22:48;;;;;;;5.03;2.67;;;20.60;99.90;;;;;;5056121;28;20044;-66
2023/06/26 06:25:14;;;;;;;7.30;3.50;;;20.60;99.90;;;;;;5054987;28;20037;-67
2023/06/26 06:27:41;;;;;;;4.90;2.53;;;20.60;99.90;;;;;;5056372;28;20041;-66
2023/06/26 06:30:07;;;;;;;4.75;2.95;;;20.50;1.00;;;;;;5056207;28;20486;-66
2023/06/26 06:32:33;;;;;;;7.65;2.95;;;20.40;1.00;;;;;;5056229;28;20062;-67
2023/06/26 06:34:59;;;;;;;6.03;2.60;;;20.50;1.00;;;;;;5056238;28;20044;-65
2023/06/26 06:37:25;;;;;;;7.18;3.05;;;20.60;99.90;;;;;;5056178;28;20033;-65
2023/06/26 06:39:52;;;;;;;4.25;2.13;;;20.70;99.90;;;;;;5056137;28;20082;-65
2023/06/26 06:42:17;;;;;;;3.60;1.73;;;20.70;99.90;;;;;;5056163;28;20440;-65
2023/06/26 06:44:43;;;;;;;2.88;1.85;;;20.80;99.90;;;;;;5055910;28;20122;-65
2023/06/26 06:47:08;;;;;;;3.67;1.73;;;20.80;99.90;;;;;;5055699;28;20396;-65
2023/06/26 06:49:34;;;;;;;2.92;1.40;;;20.70;99.90;;;;;;5055667;28;20073;-65
2023/06/26 06:51:59;;;;;;;4.70;1.55;;;20.70;99.90;;;;;;5055948;28;20048;-64
2023/06/26 06:54:27;;;;;;;4.40;1.63;;;20.70;99.90;;;;;;5055570;28;20164;-65
2023/06/26 06:56:53;;;;;;;1.92;1.20;;;20.70;99.90;;;;;;5054627;28;20381;-65
2023/06/26 06:59:18;;;;;;;4.30;1.60;;;21.20;94.50;;;;;;5055725;28;20112;-65
2023/06/26 07:01:44;;;;;;;2.88;1.30;;;20.90;65.30;;;;;;5054195;28;20484;-65
2023/06/26 07:04:09;;;;;;;2.45;1.20;;;21.60;57.90;;;;;;5055364;28;20143;-65
2023/06/26 07:06:35;;;;;;;4.82;1.80;;;21.20;31.70;;;;;;5054033;28;20115;-65
2023/06/26 07:09:01;;;;;;;2.17;1.10;;;21.40;6.60;;;;;;5055283;28;20432;-65
2023/06/26 07:11:26;;;;;;;3.72;1.45;;;21.40;1.00;;;;;;5055475;28;20039;-66
2023/06/26 07:13:52;;;;;;;3.22;1.40;;;21.50;6.60;;;;;;5055330;28;20037;-65
2023/06/26 07:16:18;;;;;;;4.72;1.35;;;22.40;1.00;;;;;;5055207;28;20045;-65
2023/06/26 07:18:43;;;;;;;3.38;1.52;;;22.00;1.00;;;;;;5055162;28;20459;-65
2023/06/26 07:21:09;;;;;;;2.10;1.00;;;21.80;1.00;;;;;;5053614;28;20079;-66
2023/06/26 07:23:35;;;;;;;2.40;1.00;;;22.00;1.00;;;;;;5054968;28;20527;-65
2023/06/26 07:26:00;;;;;;;2.50;0.90;;;21.80;1.00;;;;;;5053616;28;20480;-65
2023/06/26 07:28:26;;;;;;;4.85;1.05;;;22.20;1.00;;;;;;5054670;28;20041;-65
2023/06/26 07:30:51;;;;;;;2.08;0.98;;;21.90;1.00;;;;;;5054872;28;20029;-65
2023/06/26 07:33:17;;;;;;;2.72;0.82;;;21.90;1.00;;;;;;5054870;28;20045;-66
2023/06/26 07:35:43;;;;;;;1.35;0.93;;;22.00;1.00;;;;;;5054436;28;20045;-65
2023/06/26 07:38:08;;;;;;;3.50;1.00;;;22.10;1.00;;;;;;5054791;28;20041;-65
2023/06/26 07:40:34;;;;;;;2.88;0.88;;;22.20;1.00;;;;;;5054400;28;20465;-66
2023/06/26 07:42:59;;;;;;;4.13;1.02;;;22.30;1.00;;;;;;5054258;28;20025;-65
2023/06/26 07:45:25;;;;;;;2.60;1.17;;;22.50;1.00;;;;;;5054612;28;20099;-65
2023/06/26 07:47:50;;;;;;;1.13;0.80;;;22.90;1.00;;;;;;5054394;28;20547;-65
2023/06/26 07:50:21;;;;;;;4.85;1.13;;;22.70;1.00;;;;;;5054545;28;20108;-65
2023/06/26 07:52:46;;;;;;;1.45;0.82;;;23.20;1.00;;;;;;5054468;28;20431;-65
2023/06/26 07:55:12;;;;;;;7.65;1.60;;;23.10;1.00;;;;;;5052873;28;20048;-65
2023/06/26 07:57:38;;;;;;;3.00;1.02;;;23.00;1.00;;;;;;5054428;28;20113;-65
2023/06/26 08:00:06;;;;;;;2.65;1.10;;;23.10;1.00;;;;;;5054369;28;20048;-65
2023/06/26 08:02:32;;;;;;;0.80;0.60;;;23.00;1.00;;;;;;5054278;28;20040;-65
2023/06/26 08:04:57;;;;;;;3.13;1.00;;;23.10;1.00;;;;;;5052597;28;20492;-65
2023/06/26 08:07:23;;;;;;;2.85;1.45;;;22.90;1.00;;;;;;5052783;28;20065;-65
2023/06/26 08:09:49;;;;;;;1.20;0.75;;;23.00;1.00;;;;;;5053858;28;20476;-65
2023/06/26 08:12:14;;;;;;;1.67;0.82;;;23.10;1.00;;;;;;5054194;28;20037;-65
2023/06/26 08:14:40;;;;;;;1.80;0.60;;;22.60;1.00;;;;;;5054117;28;20044;-65
2023/06/26 08:17:05;;;;;;;2.45;0.80;;;22.50;1.00;;;;;;5054026;28;20242;-65
2023/06/26 08:19:31;;;;;;;2.92;1.00;;;22.70;1.00;;;;;;5054010;28;20056;-63
2023/06/26 08:21:56;;;;;;;2.97;1.10;;;22.60;1.00;;;;;;5053907;28;20052;-63
2023/06/26 08:24:22;;;;;;;1.10;0.52;;;22.70;1.00;;;;;;5052638;28;20488;-63
2023/06/26 08:26:48;;;;;;;1.45;0.60;;;22.30;1.00;;;;;;5053720;28;20128;-63
2023/06/26 08:29:14;;;;;;;1.58;0.90;;;22.10;1.00;;;;;;5053702;28;20484;-63
2023/06/26 08:31:41;;;;;;;3.40;1.17;;;22.10;1.00;;;;;;5052723;28;20041;-63
2023/06/26 08:34:08;;;;;;;2.70;1.13;;;22.10;1.00;;;;;;5054204;28;20125;-63
2023/06/26 08:36:33;;;;;;;2.45;1.10;;;22.20;1.00;;;;;;5053558;28;20036;-63
2023/06/26 08:38:59;;;;;;;3.40;0.98;;;22.30;1.00;;;;;;5053567;28;20110;-63
2023/06/26 08:41:25;;;;;;;1.17;0.60;;;22.30;1.00;;;;;;5052543;28;20041;-63
2023/06/26 08:43:52;;;;;;;1.48;0.80;;;22.10;1.00;;;;;;5053537;28;20402;-63
2023/06/26 08:46:19;;;;;;;0.95;0.68;;;22.40;1.00;;;;;;5053675;28;20477;-63
2023/06/26 08:48:56;;;;;;;3.17;0.90;;;22.50;1.00;;;;;;5052198;28;20067;-63
2023/06/26 08:51:25;;;;;;;0.98;0.70;;;22.40;1.00;;;;;;5053618;28;20071;-63
2023/06/26 08:53:59;;;;;;;1.00;0.60;;;22.50;1.00;;;;;;5053301;28;20123;-63
2023/06/26 08:56:30;;;;;;;0.90;0.68;;;22.60;1.00;;;;;;5053511;28;20040;-63
2023/06/26 08:58:56;;;;;;;2.15;0.85;;;22.70;1.00;;;;;;5053522;28;20039;-63
2023/06/26 09:01:23;;;;;;;2.53;0.90;;;22.80;1.00;;;;;;5053381;28;20040;-63
2023/06/26 09:03:49;;;;;;;1.55;0.77;;;22.80;1.00;;;;;;5053105;28;20111;-63
2023/06/26 09:06:14;;;;;;;2.30;0.80;;;22.90;1.00;;;;;;5053393;28;20489;-63
2023/06/26 09:08:40;;;;;;;2.35;0.98;;;23.00;1.00;;;;;;5053313;28;20044;-63
2023/06/26 09:11:06;;;;;;;1.73;0.90;;;22.70;1.00;;;;;;5053242;28;20473;-63
2023/06/26 09:13:32;;;;;;;5.07;1.30;;;22.70;1.00;;;;;;5051703;28;20048;-63
2023/06/26 09:15:58;;;;;;;2.20;0.88;;;22.50;1.00;;;;;;5053206;28;20045;-63
2023/06/26 09:18:24;;;;;;;4.60;0.85;;;22.30;1.00;;;;;;5053168;28;20048;-63
2023/06/26 09:20:50;;;;;;;1.38;0.80;;;22.70;1.00;;;;;;5053076;28;20110;-63
2023/06/26 09:23:16;;;;;;;1.95;1.00;;;22.70;1.00;;;;;;5053011;28;20096;-63
2023/06/26 09:25:44;;;;;;;1.48;0.82;;;22.60;1.00;;;;;;5053067;28;20029;-63
2023/06/26 09:28:10;;;;;;;0.40;0.40;;;22.70;1.00;;;;;;5053064;28;20037;-63
2023/06/26 09:30:36;;;;;;;3.60;1.10;;;22.90;1.00;;;;;;5053071;28;20086;-63
2023/06/26 09:33:20;;;;;;;2.88;1.15;;;22.40;1.00;;;;;;5053002;28;20088;-63
2023/06/26 09:35:47;;;;;;;2.60;1.00;;;22.20;1.00;;;;;;5052935;28;20071;-63
2023/06/26 09:38:14;;;;;;;2.97;1.15;;;22.30;1.00;;;;;;5052670;28;20118;-63
2023/06/26 09:40:40;;;;;;;3.00;1.20;;;22.50;1.00;;;;;;5052891;28;20037;-63
2023/06/26 09:43:07;;;;;;;1.95;1.00;;;22.50;1.00;;;;;;5051504;28;20511;-64
2023/06/26 09:45:38;;;;;;;3.90;0.90;;;22.80;1.00;;;;;;5052825;28;20071;-63
2023/06/26 09:48:05;;;;;;;2.90;1.00;;;23.00;1.00;;;;;;5052496;28;20507;-63
2023/06/26 09:50:37;;;;;;;4.40;1.08;;;23.00;1.00;;;;;;5052212;28;20044;-63
2023/06/26 09:53:13;;;;;;;1.85;1.23;;;22.90;1.00;;;;;;5051305;28;20443;-63
2023/06/26 09:55:43;;;;;;;6.50;1.02;;;22.80;1.00;;;;;;5052763;28;20495;-63
2023/06/26 09:58:14;;;;;;;4.13;0.85;;;22.70;1.00;;;;;;5052827;28;20119;-63
2023/06/26 10:00:43;;;;;;;2.03;0.90;;;22.40;1.00;;;;;;5052735;28;20446;-63
2023/06/26 10:03:10;;;;;;;2.38;1.20;;;22.50;1.00;;;;;;5052487;28;20065;-63
2023/06/26 10:05:37;;;;;;;2.47;1.00;;;22.80;1.00;;;;;;5051474;28;20809;-63
2023/06/26 10:08:05;;;;;;;2.58;0.82;;;22.60;1.00;;;;;;5052788;28;20037;-63
2023/06/26 10:10:33;;;;;;;2.35;1.00;;;22.30;1.00;;;;;;5052725;28;20056;-63
2023/06/26 10:13:27;;;;;;;2.15;1.20;;;22.40;1.00;;;;;;5052712;28;20047;-63
2023/06/26 10:15:54;;;;;;;2.78;1.10;;;22.30;1.00;;;;;;5052620;28;20377;-63
2023/06/26 10:18:23;;;;;;;1.35;0.90;;;22.30;1.00;;;;;;5052625;28;20443;-63
2023/06/26 10:20:51;;;;;;;1.73;1.08;;;22.70;1.00;;;;;;5052606;28;20451;-63
2023/06/26 10:23:20;;;;;;;3.30;1.00;;;22.60;1.00;;;;;;5052577;28;20037;-63
2023/06/26 10:25:48;;;;;;;2.67;1.38;;;22.60;1.00;;;;;;5052545;28;20041;-63
2023/06/26 10:28:16;;;;;;;2.05;1.00;;;22.50;1.00;;;;;;5052444;28;20044;-62
2023/06/26 10:30:44;;;;;;;1.27;0.85;;;22.70;1.00;;;;;;5052434;28;20033;-62
2023/06/26 10:33:11;;;;;;;1.77;1.15;;;22.80;1.00;;;;;;5052131;28;20083;-62
2023/06/26 10:35:44;;;;;;;1.92;0.80;;;22.70;1.00;;;;;;5034205;28;20056;-66
2023/06/26 10:38:10;;;;;;;1.13;0.80;;;22.60;1.00;;;;;;5052164;28;20064;-66
2023/06/26 10:40:43;;;;;;;2.95;1.20;;;22.60;1.00;;;;;;5052017;28;20045;-66
2023/06/26 10:43:09;;;;;;;1.65;1.08;;;22.80;1.00;;;;;;5052247;28;20403;-65
2023/06/26 10:45:36;;;;;;;1.75;0.88;;;22.80;1.00;;;;;;5052311;28;20121;-65
2023/06/26 10:48:04;;;;;;;2.40;1.23;;;22.80;1.00;;;;;;5051023;28;20051;-65
2023/06/26 10:50:31;;;;;;;1.85;0.95;;;23.10;1.00;;;;;;5052256;28;20081;-65
2023/06/26 10:53:13;;;;;;;2.00;1.25;;;23.30;1.00;;;;;;5052256;28;20427;-65
2023/06/26 10:55:47;;;;;;;4.43;1.13;;;23.30;1.00;;;;;;5050600;28;20041;-66
2023/06/26 10:58:41;;;;;;;1.95;0.80;;;23.00;1.00;;;;;;5052277;28;20059;-63
2023/06/26 11:01:15;;;;;;;1.75;0.90;;;22.80;1.00;;;;;;5054735;28;20041;-63
2023/06/26 11:03:43;;;;;;;1.75;0.82;;;22.60;1.00;;;;;;5055159;28;20052;-63
2023/06/26 11:06:13;;;;;;;1.48;1.10;;;22.60;1.00;;;;;;5055554;28;20408;-63
2023/06/26 11:08:49;;;;;;;0.88;0.50;;;22.80;1.00;;;;;;5055569;28;20120;-63
2023/06/26 11:11:15;;;;;;;1.23;0.80;;;23.20;1.00;;;;;;5054216;28;20069;-63
2023/06/26 11:13:42;;;;;;;0.88;0.70;;;23.10;1.00;;;;;;5055360;28;20079;-63
2023/06/26 11:16:07;;;;;;;1.58;0.75;;;23.00;1.00;;;;;;5055402;28;20028;-63
2023/06/26 11:18:33;;;;;;;2.50;1.00;;;23.10;1.00;;;;;;5055327;28;20078;-63
2023/06/26 11:21:10;;;;;;;1.42;0.80;;;23.10;1.00;;;;;;5055263;28;20037;-63
2023/06/26 11:23:37;;;;;;;1.38;0.90;;;23.20;1.00;;;;;;5055091;28;20071;-63
2023/06/26 11:26:21;;;;;;;1.52;0.88;;;23.10;1.00;;;;;;5055156;28;20033;-63
2023/06/26 11:28:51;;;;;;;1.20;0.77;;;23.00;1.00;;;;;;5054850;28;20037;-63
2023/06/26 11:31:31;;;;;;;1.90;1.10;;;23.00;1.00;;;;;;5055108;28;20041;-63
2023/06/26 11:34:02;;;;;;;2.53;1.05;;;23.10;1.00;;;;;;5054996;28;20049;-64
2023/06/26 11:36:28;;;;;;;1.27;0.88;;;23.10;1.00;;;;;;5054882;28;20040;-62
2023/06/26 11:38:56;;;;;;;2.33;0.80;;;23.30;1.00;;;;;;5054851;28;20518;-63
2023/06/26 11:41:21;;;;;;;5.75;1.90;;;23.50;1.00;;;;;;5054973;28;20489;-63
2023/06/26 11:43:47;;;;;;;1.75;0.60;;;23.80;1.00;;;;;;5054833;28;20075;-63
2023/06/26 11:46:17;;;;;;;0.85;0.55;;;23.80;1.00;;;;;;5054989;28;20469;-63
2023/06/26 11:48:43;;;;;;;2.40;0.95;;;23.70;1.00;;;;;;5054906;28;20052;-63
2023/06/26 11:51:08;;;;;;;0.88;0.70;;;23.70;1.00;;;;;;5053360;28;20404;-63
2023/06/26 11:53:40;;;;;;;2.15;0.93;;;23.60;1.00;;;;;;5054723;28;20045;-63
2023/06/26 11:56:14;;;;;;;1.23;0.75;;;23.70;1.00;;;;;;5053564;28;20099;-63
2023/06/26 11:59:06;;;;;;;3.58;0.65;;;23.60;1.00;;;;;;5054765;28;20095;-63
2023/06/26 12:01:36;;;;;;;1.15;0.60;;;23.30;1.00;;;;;;5054320;28;20400;-63
2023/06/26 12:04:04;;;;;;;1.45;0.68;;;23.40;1.00;;;;;;5053075;28;20060;-63
2023/06/26 12:06:31;;;;;;;1.55;0.73;;;23.30;1.00;;;;;;5054519;28;20043;-63
2023/06/26 12:09:00;;;;;;;0.85;0.60;;;23.30;1.00;;;;;;5054434;28;20051;-63
2023/06/26 12:11:28;;;;;;;2.78;0.80;;;23.40;1.00;;;;;;5053665;28;20481;-63
2023/06/26 12:13:54;;;;;;;0.98;0.60;;;23.30;1.00;;;;;;5053996;28;20040;-64
2023/06/26 12:16:20;;;;;;;0.82;0.57;;;22.90;1.00;;;;;;5054373;28;20506;-63
2023/06/26 12:18:46;;;;;;;0.93;0.55;;;23.20;1.00;;;;;;5054272;28;20051;-63
2023/06/26 12:21:37;;;;;;;0.40;0.40;;;23.10;1.00;;;;;;5053738;28;20115;-63
2023/06/26 12:24:07;;;;;;;1.45;0.60;;;23.00;1.00;;;;;;5053395;28;20048;-63
2023/06/26 12:26:33;;;;;;;4.63;0.77;;;23.00;1.00;;;;;;5053991;28;20039;-63
2023/06/26 12:29:08;;;;;;;1.90;0.57;;;22.80;1.00;;;;;;5053910;28;20564;-63
2023/06/26 12:31:33;;;;;;;0.65;0.30;;;22.90;1.00;;;;;;5053603;28;20044;-63
2023/06/26 12:34:00;;;;;;;1.05;0.60;;;23.00;1.00;;;;;;5053659;28;20385;-63
2023/06/26 12:36:26;;;;;;;1.38;0.52;;;23.00;1.00;;;;;;5053729;28;20076;-63
2023/06/26 12:38:54;;;;;;;1.67;0.50;;;23.10;1.00;;;;;;5053483;28;20530;-63
2023/06/26 12:41:20;;;;;;;1.27;0.35;;;23.10;1.00;;;;;;5053720;28;20115;-62
2023/06/26 12:43:46;;;;;;;2.65;0.80;;;22.80;1.00;;;;;;5053609;28;20084;-63
2023/06/26 12:46:12;;;;;;;2.13;0.52;;;22.80;1.00;;;;;;5053840;28;20076;-64
2023/06/26 12:48:39;;;;;;;1.30;0.50;;;23.00;1.00;;;;;;5053675;28;20044;-65
2023/06/26 12:51:09;;;;;;;3.00;0.52;;;23.00;1.00;;;;;;5053445;28;20045;-65
2023/06/26 12:53:35;;;;;;;1.15;0.63;;;22.90;1.00;;;;;;5053397;28;20099;-68
2023/06/26 12:56:01;;;;;;;2.88;0.80;;;23.10;1.00;;;;;;5053591;28;20076;-68